Time;durP1;ratioP1;P1;durP2;ratioP2;P2;SDS_P1;SDS_P2;PMS_P1;PMS_P2;Temp;Humidity;BMP_temperature;BMP_pressure;BME280_temperature;BME280_humidity;BME280_pressure;Samples;Min_cycle;Max_cycle;Signal;HPM_P1;HPM_P2
2022/04/13 00:00:07;;;;;;;54.42;5.03;;;;;;;10.43;100.00;97769.03;5000946;28;20029;-56
2022/04/13 00:02:33;;;;;;;62.83;5.20;;;;;;;10.47;100.00;97775.78;5001231;28;20044;-58
2022/04/13 00:04:58;;;;;;;64.32;5.85;;;;;;;9.60;100.00;97772.50;5004700;28;20029;-57
2022/04/13 00:07:24;;;;;;;61.45;5.32;;;;;;;9.50;100.00;97771.16;5002969;28;20038;-58
2022/04/13 00:09:49;;;;;;;60.17;5.50;;;;;;;10.13;100.00;97766.81;5003122;28;20033;-58
2022/04/13 00:12:15;;;;;;;54.92;5.53;;;;;;;8.70;100.00;97761.25;5000997;28;20104;-58
2022/04/13 00:14:41;;;;;;;76.32;6.70;;;;;;;8.77;100.00;97770.53;5002024;28;20679;-57
2022/04/13 00:17:07;;;;;;;63.55;5.78;;;;;;;8.98;100.00;97754.09;5001602;28;20044;-59
2022/04/13 00:19:33;;;;;;;54.65;5.32;;;;;;;8.94;100.00;97752.53;5001413;28;20041;-56
2022/04/13 00:21:58;;;;;;;54.30;4.97;;;;;;;9.39;100.00;97758.56;5001270;28;20052;-57
2022/04/13 00:24:24;;;;;;;67.78;5.53;;;;;;;10.07;100.00;97766.22;5001395;28;20972;-57
2022/04/13 00:26:49;;;;;;;73.25;6.18;;;;;;;10.33;100.00;97755.56;5000568;28;20046;-59
2022/04/13 00:29:15;;;;;;;68.05;6.10;;;;;;;9.47;100.00;97756.53;5001831;28;20029;-59
2022/04/13 00:31:41;;;;;;;56.65;5.38;;;;;;;9.55;100.00;97748.41;4999812;28;20049;-58
2022/04/13 00:34:06;;;;;;;61.63;5.32;;;;;;;9.68;100.00;97748.75;5001062;28;20069;-57
2022/04/13 00:36:31;;;;;;;57.00;5.00;;;;;;;10.02;100.00;97748.19;5000667;28;20112;-58
2022/04/13 00:38:57;;;;;;;71.63;5.88;;;;;;;9.83;100.00;97753.31;5002992;28;20660;-58
2022/04/13 00:41:22;;;;;;;55.30;5.15;;;;;;;9.80;100.00;97743.88;5002721;28;20573;-57
2022/04/13 00:44:05;;;;;;;57.58;5.85;;;;;;;9.41;100.00;97746.34;5002123;28;20026;-59
2022/04/13 00:46:31;;;;;;;64.90;5.38;;;;;;;9.80;100.00;97745.63;4999570;28;20507;-59
2022/04/13 00:48:58;;;;;;;67.78;5.97;;;;;;;9.99;100.00;97753.50;5002166;28;20045;-59
2022/04/13 00:51:24;;;;;;;52.03;5.50;;;;;;;9.59;100.00;97745.63;5000897;28;20034;-58
2022/04/13 00:53:51;;;;;;;60.72;5.22;;;;;;;10.03;100.00;97757.69;5001099;28;20137;-58
2022/04/13 00:56:23;;;;;;;61.97;5.20;;;;;;;10.44;100.00;97759.44;5001921;28;20038;-58
2022/04/13 00:58:51;;;;;;;47.33;5.45;;;;;;;9.79;100.00;97754.34;5007137;28;20583;-60
2022/04/13 01:01:17;;;;;;;66.68;5.93;;;;;;;9.57;100.00;97754.38;5004100;28;20041;-58
2022/04/13 01:03:44;;;;;;;59.65;5.88;;;;;;;9.80;100.00;97749.09;5006693;28;20025;-57
2022/04/13 01:06:10;;;;;;;63.30;6.20;;;;;;;9.70;100.00;97750.38;5006080;28;20243;-58
2022/04/13 01:08:37;;;;;;;58.63;5.43;;;;;;;9.87;100.00;97748.81;5004910;28;20606;-58
2022/04/13 01:11:03;;;;;;;51.22;5.75;;;;;;;10.00;100.00;97755.22;5001482;28;20069;-58
2022/04/13 01:13:29;;;;;;;53.47;5.38;;;;;;;10.19;100.00;97756.09;5002142;28;20082;-59
2022/04/13 01:15:54;;;;;;;57.47;6.03;;;;;;;10.19;100.00;97745.69;5003174;28;20049;-59
2022/04/13 01:18:20;;;;;;;63.42;5.43;;;;;;;10.38;100.00;97755.34;5006049;28;20041;-58
2022/04/13 01:21:13;;;;;;;47.70;4.50;;;;;;;10.72;100.00;97759.06;5005694;28;20030;-59
2022/04/13 01:23:57;;;;;;;59.75;5.40;;;;;;;10.59;100.00;97759.59;5004978;28;20024;-57
2022/04/13 01:26:22;;;;;;;76.00;5.97;;;;;;;10.91;100.00;97765.09;5005023;28;20514;-60
2022/04/13 01:28:47;;;;;;;51.78;5.50;;;;;;;10.95;100.00;97766.69;5005607;28;20026;-59
2022/04/13 01:31:12;;;;;;;59.17;5.63;;;;;;;10.89;100.00;97761.72;5005255;28;20824;-58
2022/04/13 01:33:40;;;;;;;60.03;5.97;;;;;;;10.29;100.00;97760.91;5006297;28;20022;-59
2022/04/13 01:36:06;;;;;;;60.38;6.10;;;;;;;9.27;100.00;97763.38;5003479;28;20042;-58
2022/04/13 01:38:32;;;;;;;64.47;5.65;;;;;;;10.19;100.00;97761.31;5006261;28;20018;-60
2022/04/13 01:40:58;;;;;;;57.25;5.88;;;;;;;9.96;100.00;97753.63;5005073;28;20044;-60
2022/04/13 01:43:24;;;;;;;58.22;5.78;;;;;;;10.27;100.00;97754.94;5006076;28;20018;-59
2022/04/13 01:45:50;;;;;;;40.38;4.75;;;;;;;10.17;100.00;97751.88;5002458;28;20048;-58
2022/04/13 01:48:19;;;;;;;59.75;5.85;;;;;;;10.27;100.00;97745.34;5004895;28;20041;-58
2022/04/13 01:50:45;;;;;;;66.75;6.15;;;;;;;10.26;100.00;97750.66;5003238;28;20088;-59
2022/04/13 01:53:10;;;;;;;55.72;5.20;;;;;;;10.65;100.00;97757.63;5005266;28;20026;-59
2022/04/13 01:55:35;;;;;;;64.00;5.97;;;;;;;10.31;100.00;97754.78;5005916;28;20045;-59
2022/04/13 01:58:01;;;;;;;55.10;5.65;;;;;;;9.59;100.00;97765.59;5005404;28;20029;-59
2022/04/13 02:00:26;;;;;;;59.78;6.03;;;;;;;9.95;100.00;97764.97;5004035;28;20034;-59
2022/04/13 02:02:53;;;;;;;53.75;5.07;;;;;;;9.96;100.00;97764.06;5004796;28;20033;-59
2022/04/13 02:05:19;;;;;;;57.75;5.93;;;;;;;9.09;100.00;97760.66;5002821;28;20041;-59
2022/04/13 02:07:44;;;;;;;66.97;5.80;;;;;;;9.63;100.00;97772.34;5004771;28;20033;-58
2022/04/13 02:10:09;;;;;;;58.72;5.28;;;;;;;9.49;100.00;97770.34;5001320;28;20037;-58
2022/04/13 02:12:36;;;;;;;48.03;5.38;;;;;;;9.36;100.00;97764.78;5004222;28;20029;-61
2022/04/13 02:15:02;;;;;;;59.38;6.50;;;;;;;9.22;100.00;97762.69;5004864;28;20030;-59
2022/04/13 02:17:27;;;;;;;56.65;5.65;;;;;;;9.20;100.00;97759.31;5004252;28;20067;-59
2022/04/13 02:19:52;;;;;;;70.72;6.70;;;;;;;9.28;100.00;97756.41;5004175;28;20407;-58
2022/04/13 02:22:18;;;;;;;59.72;5.97;;;;;;;9.25;100.00;97757.38;5003758;28;20056;-59
2022/04/13 02:24:43;;;;;;;75.32;6.65;;;;;;;9.47;100.00;97756.53;5003794;28;20443;-57
2022/04/13 02:27:09;;;;;;;65.40;6.40;;;;;;;9.56;100.00;97765.72;5004248;28;20038;-58
2022/04/13 02:29:36;;;;;;;56.28;5.68;;;;;;;9.93;100.00;97764.22;5003750;28;20550;-58
2022/04/13 02:32:03;;;;;;;57.80;5.30;;;;;;;9.85;100.00;97772.31;5005136;28;20038;-58
2022/04/13 02:34:28;;;;;;;64.55;5.25;;;;;;;10.09;100.00;97762.66;5004666;28;20030;-57
2022/04/13 02:36:54;;;;;;;53.55;5.28;;;;;;;9.40;100.00;97763.72;5003227;28;20449;-58
2022/04/13 02:39:19;;;;;;;59.78;5.13;;;;;;;9.51;100.00;97768.50;5003567;28;20068;-58
2022/04/13 02:41:45;;;;;;;64.20;5.05;;;;;;;10.00;100.00;97765.66;5003608;28;20041;-60
2022/04/13 02:44:10;;;;;;;56.15;5.20;;;;;;;10.01;100.00;97767.31;5002151;28;20105;-58
2022/04/13 02:46:35;;;;;;;64.80;5.90;;;;;;;9.86;100.00;97767.97;5001956;28;20093;-57
2022/04/13 02:49:01;;;;;;;59.63;5.60;;;;;;;9.78;100.00;97763.94;5004534;28;20030;-58
2022/04/13 02:51:26;;;;;;;52.20;5.05;;;;;;;10.13;100.00;97766.81;5002818;28;20037;-59
2022/04/13 02:53:51;;;;;;;57.72;6.15;;;;;;;9.05;100.00;97775.53;5001866;28;20039;-58
2022/04/13 02:56:17;;;;;;;59.08;5.47;;;;;;;8.96;100.00;97763.72;5001919;28;20045;-58
2022/04/13 02:58:42;;;;;;;58.42;5.38;;;;;;;9.04;100.00;97764.28;5002405;28;20029;-59
2022/04/13 03:01:08;;;;;;;58.40;5.25;;;;;;;9.53;100.00;97771.88;5001216;28;20060;-59
2022/04/13 03:03:33;;;;;;;55.25;4.90;;;;;;;9.78;100.00;97776.13;5003086;28;20030;-58
2022/04/13 03:05:59;;;;;;;59.28;5.03;;;;;;;10.08;100.00;97779.19;5002281;28;20093;-57
2022/04/13 03:08:25;;;;;;;63.92;5.65;;;;;;;9.49;100.00;97779.91;4999442;28;20017;-59
2022/04/13 03:10:51;;;;;;;84.65;7.40;;;;;;;8.50;100.00;97765.44;4998017;28;20058;-58
2022/04/13 03:13:16;;;;;;;58.72;6.30;;;;;;;8.85;100.00;97758.06;5001612;28;20740;-58
2022/04/13 03:15:41;;;;;;;47.78;5.38;;;;;;;8.98;100.00;97764.50;5002630;28;20048;-57
2022/04/13 03:18:07;;;;;;;63.67;6.40;;;;;;;9.11;100.00;97766.63;5003488;28;20054;-57
2022/04/13 03:20:34;;;;;;;63.88;6.30;;;;;;;9.18;100.00;97760.28;5002874;28;20527;-57
2022/04/13 03:22:59;;;;;;;122.10;8.95;;;;;;;9.01;100.00;97753.97;5002285;28;20389;-57
2022/04/13 03:25:24;;;;;;;61.72;6.18;;;;;;;9.22;100.00;97767.06;5001210;28;20561;-57
2022/04/13 03:27:50;;;;;;;81.78;6.40;;;;;;;9.16;100.00;97760.34;4999394;28;20029;-58
2022/04/13 03:30:16;;;;;;;54.75;5.80;;;;;;;9.06;100.00;97762.47;5001504;28;20037;-57
2022/04/13 03:32:42;;;;;;;73.78;6.00;;;;;;;9.26;100.00;97768.63;5001122;28;20022;-57
2022/04/13 03:35:12;;;;;;;65.35;5.30;;;;;;;9.52;100.00;97774.56;4998596;28;20034;-58
2022/04/13 03:37:39;;;;;;;73.18;6.30;;;;;;;9.40;100.00;97768.94;5004384;28;20076;-58
2022/04/13 03:40:07;;;;;;;62.80;6.57;;;;;;;8.78;100.00;97767.84;5000711;28;20109;-59
2022/04/13 03:42:34;;;;;;;57.60;6.07;;;;;;;8.64;100.00;97765.78;5002966;28;20040;-58
2022/04/13 03:45:11;;;;;;;61.95;6.25;;;;;;;8.72;100.00;97756.84;5002609;28;20022;-56
2022/04/13 03:47:38;;;;;;;64.78;6.50;;;;;;;8.81;100.00;97767.75;5003045;28;20042;-57
2022/04/13 03:50:04;;;;;;;64.13;6.35;;;;;;;8.76;100.00;97764.47;5003023;28;20025;-57
2022/04/13 03:52:33;;;;;;;51.75;6.25;;;;;;;8.91;100.00;97773.44;5003382;28;20024;-58
2022/04/13 03:54:58;;;;;;;74.55;6.68;;;;;;;8.81;100.00;97766.91;5001812;28;20187;-59
2022/04/13 03:57:24;;;;;;;53.10;6.13;;;;;;;8.64;100.00;97776.19;5002850;28;20392;-59
2022/04/13 03:59:50;;;;;;;60.10;6.03;;;;;;;8.70;100.00;97771.66;5002927;28;20025;-59
2022/04/13 04:02:16;;;;;;;52.13;5.57;;;;;;;8.67;100.00;97773.47;5003217;28;20062;-59
2022/04/13 04:04:41;;;;;;;76.78;7.22;;;;;;;8.86;100.00;97780.59;5003831;28;20034;-58
2022/04/13 04:07:07;;;;;;;68.45;6.07;;;;;;;9.03;100.00;97780.78;5000210;28;20256;-57
2022/04/13 04:09:32;;;;;;;53.70;5.22;;;;;;;9.25;100.00;97775.59;5004361;28;20037;-58
2022/04/13 04:11:57;;;;;;;56.95;5.95;;;;;;;9.14;100.00;97784.75;5002640;28;20640;-57
2022/04/13 04:14:23;;;;;;;61.80;6.10;;;;;;;9.00;100.00;97783.50;5003520;28;20029;-56
2022/04/13 04:16:49;;;;;;;60.47;5.82;;;;;;;8.84;100.00;97782.38;5001537;28;20124;-57
2022/04/13 04:19:14;;;;;;;54.80;5.70;;;;;;;8.87;100.00;97787.47;5001732;28;20167;-56
2022/04/13 04:21:39;;;;;;;57.47;5.65;;;;;;;8.82;100.00;97781.59;5002308;28;20064;-55
2022/04/13 04:24:05;;;;;;;70.63;6.60;;;;;;;9.01;100.00;97787.81;5002228;28;20581;-58
2022/04/13 04:26:30;;;;;;;55.38;5.35;;;;;;;8.77;100.00;97786.13;5003505;28;20108;-57
2022/04/13 04:28:55;;;;;;;48.42;5.60;;;;;;;8.86;100.00;97788.41;5001624;28;20033;-58
2022/04/13 04:31:49;;;;;;;63.20;5.63;;;;;;;9.05;100.00;97794.59;5002708;28;20089;-58
2022/04/13 04:34:06;;;;;;;62.42;5.10;;;;;;;9.67;100.00;97805.19;5002658;28;20117;-58
2022/04/13 04:36:31;;;;;;;61.05;5.55;;;;;;;9.02;100.00;97799.06;5000247;28;20042;-57
2022/04/13 04:38:57;;;;;;;90.72;8.25;;;;;;;7.84;100.00;97807.50;4999916;28;20111;-56
2022/04/13 04:41:22;;;;;;;76.25;6.97;;;;;;;8.16;100.00;97805.59;5000904;28;20133;-57
2022/04/13 04:43:47;;;;;;;68.28;6.50;;;;;;;8.33;100.00;97807.59;5000510;28;20022;-57
2022/04/13 04:46:13;;;;;;;62.50;5.55;;;;;;;8.78;100.00;97809.47;5001705;28;20088;-59
2022/04/13 04:48:42;;;;;;;70.75;7.10;;;;;;;8.99;100.00;97810.44;5001892;28;20031;-57
2022/04/13 04:51:07;;;;;;;67.18;6.63;;;;;;;8.85;100.00;97808.34;5001836;28;20155;-59
2022/04/13 04:53:33;;;;;;;60.17;6.57;;;;;;;8.83;100.00;97806.69;5002033;28;20141;-59
2022/04/13 04:55:58;;;;;;;65.65;6.72;;;;;;;8.69;100.00;97809.78;5001871;28;20084;-59
2022/04/13 04:58:24;;;;;;;67.65;6.70;;;;;;;8.55;100.00;97806.88;4999995;28;20432;-58
2022/04/13 05:00:49;;;;;;;69.22;6.80;;;;;;;8.77;100.00;97812.97;5001497;28;20026;-58
2022/04/13 05:03:14;;;;;;;68.28;7.20;;;;;;;8.59;100.00;97811.91;5002381;28;20472;-59
2022/04/13 05:05:41;;;;;;;61.42;6.20;;;;;;;8.79;100.00;97810.34;5000590;28;20048;-56
2022/04/13 05:08:07;;;;;;;61.58;6.53;;;;;;;8.84;100.00;97819.66;5001061;28;20026;-56
2022/04/13 05:10:32;;;;;;;63.60;6.40;;;;;;;9.16;100.00;97825.41;5000555;28;20046;-57
2022/04/13 05:12:58;;;;;;;53.85;6.22;;;;;;;9.30;100.00;97831.81;5001541;28;20068;-58
2022/04/13 05:15:24;;;;;;;65.90;6.50;;;;;;;9.17;100.00;97834.03;4999844;28;20510;-57
2022/04/13 05:17:49;;;;;;;71.65;6.82;;;;;;;9.55;100.00;97831.72;5002050;28;20022;-57
2022/04/13 05:20:15;;;;;;;48.85;5.40;;;;;;;10.30;100.00;97831.25;5001450;28;20022;-57
2022/04/13 05:22:40;;;;;;;76.03;6.95;;;;;;;10.22;100.00;97833.34;5001519;28;20018;-57
2022/04/13 05:25:15;;;;;;;66.15;6.60;;;;;;;10.68;100.00;97835.72;4999752;28;20022;-58
2022/04/13 05:27:41;;;;;;;68.45;6.43;;;;;;;11.31;100.00;97841.56;5001096;28;20054;-58
2022/04/13 05:30:08;;;;;;;67.32;7.18;;;;;;;11.56;100.00;97835.19;4999960;28;20092;-56
2022/04/13 05:32:48;;;;;;;63.25;6.35;;;;;;;11.54;94.23;97842.25;5003189;28;20014;-57
2022/04/13 05:35:13;;;;;;;52.70;6.50;;;;;;;12.47;85.50;97842.06;4999847;28;20026;-58
2022/04/13 05:37:38;;;;;;;50.42;6.28;;;;;;;12.56;83.81;97845.16;5000977;28;20410;-57
2022/04/13 05:40:04;;;;;;;57.22;6.82;;;;;;;12.12;78.14;97851.69;4999407;28;20568;-58
2022/04/13 05:42:31;;;;;;;64.82;7.18;;;;;;;14.55;68.74;97842.88;5001016;28;20034;-57
2022/04/13 05:44:57;;;;;;;95.85;8.10;;;;;;;15.40;67.81;97849.09;5004954;28;20029;-58
2022/04/13 05:47:22;;;;;;;66.03;7.05;;;;;;;15.45;61.07;97854.91;5002939;28;20115;-57
2022/04/13 05:49:47;;;;;;;61.05;6.90;;;;;;;15.38;61.07;97853.59;5004954;28;20414;-58
2022/04/13 05:52:13;;;;;;;62.78;7.13;;;;;;;16.25;57.87;97855.03;5003144;28;20125;-56
2022/04/13 05:54:39;;;;;;;62.95;6.80;;;;;;;15.91;59.10;97859.88;5003599;28;20123;-57
2022/04/13 05:57:04;;;;;;;67.55;7.30;;;;;;;16.13;57.23;97858.47;5006016;28;20034;-58
2022/04/13 05:59:29;;;;;;;56.15;6.93;;;;;;;15.10;58.68;97865.81;5002965;28;20741;-58
2022/04/13 06:01:55;;;;;;;69.03;7.00;;;;;;;15.52;62.16;97860.63;5003178;28;20042;-58
2022/04/13 06:04:20;;;;;;;61.40;6.85;;;;;;;15.57;59.09;97863.81;5001651;28;20054;-58
2022/04/13 06:06:45;;;;;;;61.45;6.72;;;;;;;15.74;57.30;97860.97;5004479;28;20120;-57
2022/04/13 06:09:11;;;;;;;57.40;6.50;;;;;;;15.28;57.82;97863.00;5005973;28;20038;-58
2022/04/13 06:11:36;;;;;;;54.67;6.95;;;;;;;16.24;55.33;97866.50;5006129;28;20052;-57
2022/04/13 06:14:01;;;;;;;66.20;6.90;;;;;;;15.13;59.01;97878.78;5002163;28;20030;-58
2022/04/13 06:16:27;;;;;;;56.35;6.10;;;;;;;16.22;61.53;97873.66;5003102;28;20542;-58
2022/04/13 06:18:52;;;;;;;77.60;7.97;;;;;;;15.87;55.19;97874.16;5000395;28;20041;-58
2022/04/13 06:21:17;;;;;;;63.80;7.30;;;;;;;17.34;52.51;97876.56;5003124;28;20041;-57
2022/04/13 06:23:43;;;;;;;62.30;6.90;;;;;;;16.51;52.98;97874.34;5003832;28;20045;-58
2022/04/13 06:26:08;;;;;;;58.25;7.00;;;;;;;16.65;54.68;97869.94;5003216;28;20044;-59
2022/04/13 06:28:33;;;;;;;55.03;6.43;;;;;;;17.56;51.59;97874.22;5004040;28;20838;-57
2022/04/13 06:30:59;;;;;;;60.42;7.00;;;;;;;17.83;50.66;97874.00;5002422;28;20076;-58
2022/04/13 06:33:24;;;;;;;68.50;7.43;;;;;;;19.41;47.81;97875.31;5003714;28;20034;-58
2022/04/13 06:35:50;;;;;;;59.20;6.97;;;;;;;17.35;49.28;97874.81;5002825;28;20049;-57
2022/04/13 06:38:15;;;;;;;54.67;7.05;;;;;;;17.51;49.15;97877.19;5002559;28;20022;-57
2022/04/13 06:40:41;;;;;;;55.72;6.75;;;;;;;17.44;49.14;97879.44;5003603;28;20036;-56
2022/04/13 06:43:06;;;;;;;82.28;8.55;;;;;;;18.85;47.62;97878.75;5000256;28;20034;-58
2022/04/13 06:45:31;;;;;;;72.00;7.78;;;;;;;19.65;44.69;97876.97;5000422;28;20593;-59
2022/04/13 06:47:57;;;;;;;89.10;8.93;;;;;;;18.59;46.10;97875.44;5000551;28;20033;-58
2022/04/13 06:50:22;;;;;;;55.85;6.90;;;;;;;19.18;45.56;97878.91;4999954;28;20131;-57
2022/04/13 06:52:47;;;;;;;54.67;6.80;;;;;;;18.26;45.76;97882.28;5003456;28;20026;-57
2022/04/13 06:55:13;;;;;;;55.20;6.70;;;;;;;20.93;42.50;97880.56;5002981;28;20662;-57
2022/04/13 06:57:38;;;;;;;54.17;7.25;;;;;;;19.21;44.36;97878.69;5004638;28;20029;-59
2022/04/13 07:00:10;;;;;;;67.25;7.80;;;;;;;17.17;48.62;97886.59;5001895;28;20022;-56
2022/04/13 07:02:36;;;;;;;60.67;7.10;;;;;;;19.00;45.69;97886.47;5004411;28;20536;-57
2022/04/13 07:05:02;;;;;;;72.18;8.35;;;;;;;20.51;42.84;97890.28;5001074;28;20121;-58
2022/04/13 07:07:27;;;;;;;75.57;8.27;;;;;;;18.63;44.71;97887.44;5004986;28;20034;-59
2022/04/13 07:09:53;;;;;;;55.47;7.25;;;;;;;20.74;42.41;97885.75;5004072;28;20129;-58
2022/04/13 07:12:18;;;;;;;49.35;6.55;;;;;;;19.24;45.01;97889.00;5002349;28;20041;-57
2022/04/13 07:14:43;;;;;;;78.82;8.30;;;;;;;20.59;42.37;97898.47;5000282;28;20465;-57
2022/04/13 07:17:09;;;;;;;55.28;7.03;;;;;;;21.35;41.58;97901.69;5002376;28;20632;-57
2022/04/13 07:19:34;;;;;;;50.58;7.03;;;;;;;21.91;38.71;97896.91;5001508;28;20061;-58
2022/04/13 07:22:00;;;;;;;49.25;6.70;;;;;;;22.66;39.17;97900.72;5000373;28;20837;-57
2022/04/13 07:24:26;;;;;;;52.13;7.32;;;;;;;22.08;38.79;97896.22;5002370;28;20041;-58
2022/04/13 07:26:51;;;;;;;69.18;7.95;;;;;;;22.79;37.28;97900.44;5002561;28;20193;-58
2022/04/13 07:29:17;;;;;;;58.28;7.50;;;;;;;20.92;39.52;97896.63;5004699;28;20882;-58
2022/04/13 07:31:42;;;;;;;53.70;7.07;;;;;;;22.77;37.47;97889.06;4999773;28;20038;-57
2022/04/13 07:34:07;;;;;;;50.60;6.88;;;;;;;20.78;38.87;97890.66;5003736;28;20032;-57
2022/04/13 07:36:33;;;;;;;52.33;7.15;;;;;;;21.07;40.54;97883.84;5004226;28;20034;-59
2022/04/13 07:38:58;;;;;;;80.95;8.55;;;;;;;21.52;39.46;97888.81;5000857;28;20029;-60
2022/04/13 07:41:24;;;;;;;54.72;7.15;;;;;;;22.67;38.05;97891.75;5000551;28;21111;-59
2022/04/13 07:43:49;;;;;;;47.20;6.75;;;;;;;24.79;35.06;97893.63;5003717;28;20445;-56
2022/04/13 07:46:15;;;;;;;59.38;7.78;;;;;;;22.62;37.03;97895.81;5002088;28;20878;-58
2022/04/13 07:48:41;;;;;;;55.55;7.53;;;;;;;22.02;37.72;97896.78;5004194;28;20030;-58
2022/04/13 07:51:06;;;;;;;61.20;8.07;;;;;;;23.52;35.56;97907.78;5002520;28;20038;-58
2022/04/13 07:53:32;;;;;;;55.95;7.30;;;;;;;23.48;35.60;97909.91;5000707;28;20693;-59
2022/04/13 07:55:57;;;;;;;56.13;7.68;;;;;;;23.94;35.42;97909.97;5000214;28;20037;-58
2022/04/13 07:58:22;;;;;;;41.17;6.63;;;;;;;21.68;37.79;97913.03;5000574;28;20026;-57
2022/04/13 08:00:47;;;;;;;53.97;7.07;;;;;;;25.20;33.98;97908.06;5003148;28;20095;-59
2022/04/13 08:03:13;;;;;;;51.17;7.30;;;;;;;26.24;32.98;97906.19;5003729;28;20026;-57
2022/04/13 08:05:39;;;;;;;56.27;7.57;;;;;;;22.66;36.59;97913.16;5001397;28;20550;-58
2022/04/13 08:08:05;;;;;;;62.55;7.95;;;;;;;23.76;34.95;97901.09;5001143;28;20272;-59
2022/04/13 08:10:31;;;;;;;58.55;8.10;;;;;;;25.74;32.93;97899.00;4999860;28;20042;-58
2022/04/13 08:12:56;;;;;;;53.65;7.63;;;;;;;23.50;35.63;97901.78;5000416;28;20076;-60
2022/04/13 08:15:21;;;;;;;62.88;7.93;;;;;;;25.76;33.43;97902.34;5000864;28;20022;-58
2022/04/13 08:17:47;;;;;;;77.28;9.07;;;;;;;24.27;34.29;97909.50;4997653;28;20026;-58
2022/04/13 08:20:13;;;;;;;48.67;7.10;;;;;;;23.12;35.83;97902.75;4999616;28;20030;-59
2022/04/13 08:22:39;;;;;;;47.03;6.95;;;;;;;25.15;33.18;97913.03;5002216;28;20066;-59
2022/04/13 08:25:05;;;;;;;71.88;8.18;;;;;;;27.70;30.85;97913.44;5005548;28;20127;-59
2022/04/13 08:27:30;;;;;;;47.50;6.65;;;;;;;27.53;31.44;97907.28;5000669;28;20589;-59
2022/04/13 08:29:56;;;;;;;49.25;6.72;;;;;;;27.62;31.41;97910.75;5001232;28;20608;-59
2022/04/13 08:32:21;;;;;;;45.13;6.80;;;;;;;26.93;31.70;97916.59;5002447;28;20568;-58
2022/04/13 08:34:51;;;;;;;70.40;8.45;;;;;;;27.30;31.72;97921.41;5003501;28;20403;-58
2022/04/13 08:37:17;;;;;;;55.28;7.43;;;;;;;27.05;30.68;97925.94;4999735;28;20089;-59
2022/04/13 08:39:42;;;;;;;58.55;7.70;;;;;;;25.85;32.41;97928.09;4999594;28;20053;-60
2022/04/13 08:42:13;;;;;;;46.63;6.80;;;;;;;26.27;31.82;97932.59;4999889;28;20054;-57
2022/04/13 08:45:08;;;;;;;49.03;7.15;;;;;;;24.79;33.48;97930.97;4999461;28;20280;-59
2022/04/13 08:47:37;;;;;;;39.30;6.25;;;;;;;25.24;32.90;97927.31;4999672;28;20072;-58
2022/04/13 08:50:04;;;;;;;40.63;6.20;;;;;;;26.86;32.05;97932.50;4999101;28;20022;-60
2022/04/13 08:52:32;;;;;;;47.85;7.07;;;;;;;24.92;33.59;97925.22;4979280;28;20030;-59
2022/04/13 08:55:08;;;;;;;62.33;7.55;;;;;;;28.70;29.86;97919.91;4977510;28;20135;-60
2022/04/13 08:57:45;;;;;;;37.67;6.47;;;;;;;25.17;32.54;97924.41;4981178;28;20093;-60
2022/04/13 09:00:18;;;;;;;43.72;6.53;;;;;;;27.14;31.25;97924.09;4963207;28;20599;-59
2022/04/13 09:02:47;;;;;;;57.33;7.20;;;;;;;26.78;31.66;97923.63;4982493;28;20033;-58
2022/04/13 09:05:16;;;;;;;50.33;6.75;;;;;;;27.53;30.92;97922.53;4980781;28;20061;-56
2022/04/13 09:07:42;;;;;;;49.33;6.97;;;;;;;28.96;30.00;97920.31;4981982;28;20125;-59
2022/04/13 09:10:12;;;;;;;51.10;7.10;;;;;;;28.08;30.26;97932.34;4982773;28;20651;-58
2022/04/13 09:12:38;;;;;;;48.58;6.90;;;;;;;27.34;30.66;97929.94;4982573;28;20026;-59
2022/04/13 09:15:05;;;;;;;56.40;7.60;;;;;;;26.21;31.68;97925.22;4981738;28;20049;-59
2022/04/13 09:17:31;;;;;;;46.35;6.22;;;;;;;26.83;31.99;97932.00;4983076;28;20730;-57
2022/04/13 09:19:58;;;;;;;56.25;7.10;;;;;;;25.61;32.67;97925.34;4987360;28;20117;-58
2022/04/13 09:22:24;;;;;;;52.22;7.00;;;;;;;26.82;31.53;97924.97;4984045;28;20505;-59
2022/04/13 09:24:50;;;;;;;71.07;8.48;;;;;;;25.46;33.26;97933.13;4986025;28;20054;-59
2022/04/13 09:27:17;;;;;;;44.25;6.63;;;;;;;25.13;33.65;97927.56;4984628;28;20073;-60
2022/04/13 09:29:42;;;;;;;66.32;7.85;;;;;;;26.73;32.36;97922.28;4985201;28;20026;-59
2022/04/13 09:32:08;;;;;;;59.15;7.22;;;;;;;25.79;32.92;97918.06;4982841;28;20045;-60
2022/04/13 09:34:33;;;;;;;53.97;7.00;;;;;;;25.25;32.89;97923.63;4988200;28;20486;-60
2022/04/13 09:37:00;;;;;;;53.50;6.55;;;;;;;25.44;33.72;97922.59;4985785;28;20098;-60
2022/04/13 09:39:26;;;;;;;47.33;6.53;;;;;;;25.10;33.51;97923.34;4985257;28;20032;-61
2022/04/13 09:41:51;;;;;;;56.13;7.10;;;;;;;28.24;30.59;97920.69;4985056;28;20046;-59
2022/04/13 09:44:20;;;;;;;63.85;7.57;;;;;;;28.16;30.50;97918.91;4984801;28;20491;-59
2022/04/13 09:46:46;;;;;;;51.65;6.72;;;;;;;27.22;31.54;97921.41;4985518;28;20038;-60
2022/04/13 09:49:11;;;;;;;62.25;7.47;;;;;;;28.75;30.06;97914.84;4986694;28;20037;-61
2022/04/13 09:51:42;;;;;;;56.78;7.07;;;;;;;27.76;30.67;97911.88;4985323;28;20069;-60
2022/04/13 09:54:09;;;;;;;56.93;7.20;;;;;;;29.85;29.16;97910.66;4983909;28;20554;-62
2022/04/13 09:56:42;;;;;;;49.63;6.57;;;;;;;26.44;31.77;97908.53;4983695;28;20053;-61
2022/04/13 09:59:07;;;;;;;56.08;6.93;;;;;;;26.31;32.32;97907.19;4985227;28;20033;-61
2022/04/13 10:01:34;;;;;;;62.35;7.80;;;;;;;25.42;33.25;97908.56;4983411;28;20030;-59
2022/04/13 10:04:00;;;;;;;63.38;7.60;;;;;;;24.52;34.04;97897.19;4986754;28;20524;-61
2022/04/13 10:06:29;;;;;;;55.53;6.88;;;;;;;25.38;33.39;97904.50;4983175;28;20058;-60
2022/04/13 10:09:00;;;;;;;48.25;6.25;;;;;;;23.64;34.94;97901.28;4984227;28;20113;-59
2022/04/13 10:11:26;;;;;;;59.45;6.90;;;;;;;24.93;33.34;97894.91;4983982;28;20141;-61
2022/04/13 10:13:51;;;;;;;47.05;6.35;;;;;;;22.76;35.72;97898.06;4985397;28;20113;-60
2022/04/13 10:16:16;;;;;;;68.57;7.28;;;;;;;25.50;33.86;97886.41;4984724;28;20145;-59
2022/04/13 10:18:55;;;;;;;61.20;7.20;;;;;;;23.59;35.94;97884.91;4983577;28;20052;-61
2022/04/13 10:21:51;;;;;;;56.35;6.88;;;;;;;24.32;34.99;97877.91;4982599;28;20046;-59
2022/04/13 10:24:25;;;;;;;48.63;6.28;;;;;;;26.22;32.77;97880.63;4984736;28;20022;-60
2022/04/13 10:27:02;;;;;;;54.65;6.40;;;;;;;25.71;33.62;97878.78;4985383;28;20046;-60
2022/04/13 10:29:30;;;;;;;54.28;6.45;;;;;;;25.19;33.75;97874.38;4984319;28;20025;-59
2022/04/13 10:32:03;;;;;;;65.55;7.70;;;;;;;24.05;35.09;97871.63;4980836;28;20046;-60
2022/04/13 10:34:33;;;;;;;51.25;6.22;;;;;;;24.72;35.20;97869.41;4982943;28;20088;-61
2022/04/13 10:36:59;;;;;;;82.40;8.10;;;;;;;23.13;36.89;97867.19;4981348;28;20038;-60
2022/04/13 10:39:24;;;;;;;58.63;6.70;;;;;;;24.54;35.48;97857.94;4984393;28;20022;-60
2022/04/13 10:41:49;;;;;;;63.45;6.93;;;;;;;24.79;35.76;97861.59;4983416;28;20151;-61
2022/04/13 10:44:37;;;;;;;55.45;6.47;;;;;;;25.10;34.93;97856.63;4980181;28;20037;-60
2022/04/13 10:47:07;;;;;;;65.85;7.03;;;;;;;24.93;35.48;97852.22;4979245;28;20121;-61
2022/04/13 10:50:00;;;;;;;50.42;6.00;;;;;;;24.51;36.08;97848.38;4982643;28;20034;-62
2022/04/13 10:52:55;;;;;;;40.65;5.20;;;;;;;23.11;37.26;97854.03;5005616;28;20042;-60
2022/04/13 10:55:22;;;;;;;53.78;6.30;;;;;;;25.48;34.71;97848.34;5000054;28;20026;-60
2022/04/13 10:58:01;;;;;;;54.50;6.30;;;;;;;24.66;35.28;97838.03;4984484;28;20030;-60
2022/04/13 11:00:31;;;;;;;42.88;5.57;;;;;;;25.67;33.68;97842.72;4982372;28;20038;-62
2022/04/13 11:03:01;;;;;;;49.63;5.80;;;;;;;24.75;34.92;97844.25;4981701;28;20289;-60
2022/04/13 11:05:27;;;;;;;51.60;6.20;;;;;;;24.76;35.30;97841.44;4980941;28;20137;-61
2022/04/13 11:08:10;;;;;;;46.35;6.30;;;;;;;24.58;35.29;97837.97;4984132;28;20114;-60
2022/04/13 11:10:37;;;;;;;49.45;6.20;;;;;;;23.72;36.59;97838.47;4983840;28;20050;-60
2022/04/13 11:13:03;;;;;;;55.92;6.75;;;;;;;25.15;36.09;97841.00;4982310;28;20556;-60
2022/04/13 11:15:46;;;;;;;51.63;5.95;;;;;;;24.20;37.13;97846.13;4982497;28;20043;-58
2022/04/13 11:18:17;;;;;;;49.15;5.95;;;;;;;25.20;35.79;97838.69;4982705;28;20110;-58
2022/04/13 11:21:00;;;;;;;46.15;5.70;;;;;;;26.13;34.96;97834.31;4984418;28;20712;-60
2022/04/13 11:23:52;;;;;;;46.90;5.95;;;;;;;24.35;36.98;97833.09;4983945;28;20026;-58